createdAt,value
2023-04-14T00:00:06.433Z,5.60
2023-04-14T00:03:14.280Z,5.60
2023-04-14T00:06:16.286Z,5.60
2023-04-14T00:09:18.056Z,5.70
2023-04-14T00:12:19.749Z,5.70
2023-04-14T00:15:22.337Z,5.50
2023-04-14T00:18:24.142Z,5.60
2023-04-14T00:21:27.027Z,5.40
2023-04-14T00:24:28.779Z,5.30
2023-04-14T00:27:31.112Z,5.40
2023-04-14T00:30:32.882Z,5.30
2023-04-14T00:33:34.571Z,5.40
2023-04-14T00:36:36.954Z,5.30
2023-04-14T00:39:38.625Z,5.40
2023-04-14T00:42:47.786Z,5.20
2023-04-14T00:45:50.797Z,5.10
2023-04-14T00:48:52.527Z,5.10
2023-04-14T00:51:54.722Z,5.10
2023-04-14T00:54:56.681Z,5.10
2023-04-14T00:57:58.364Z,5.10
2023-04-14T01:01:00.187Z,5.20
2023-04-14T01:04:03.045Z,5.10
2023-04-14T01:07:04.814Z,5.00
2023-04-14T01:10:07.364Z,4.80
2023-04-14T01:13:24.092Z,4.90
2023-04-14T01:16:33.108Z,4.90
2023-04-14T01:19:41.632Z,4.90
2023-04-14T01:23:07.873Z,4.80
2023-04-14T01:26:29.363Z,4.80
2023-04-14T01:30:08.535Z,4.70
2023-04-14T01:33:15.541Z,4.70
2023-04-14T01:36:33.124Z,4.70
2023-04-14T01:39:47.067Z,4.70
2023-04-14T01:42:56.347Z,4.60
2023-04-14T01:46:03.749Z,4.40
2023-04-14T01:49:06.579Z,4.50
2023-04-14T01:52:11.181Z,4.40
2023-04-14T01:55:18.388Z,4.40
2023-04-14T01:58:21.840Z,4.40
2023-04-14T02:01:27.870Z,4.30
2023-04-14T02:04:39.004Z,4.30
2023-04-14T02:07:42.196Z,4.40
2023-04-14T02:10:48.903Z,4.30
2023-04-14T02:13:52.669Z,4.40
2023-04-14T02:16:57.228Z,4.30
2023-04-14T02:20:00.925Z,4.30
2023-04-14T02:23:02.706Z,4.10
2023-04-14T02:26:12.975Z,4.10
2023-04-14T02:29:20.713Z,4.00
2023-04-14T02:32:29.454Z,4.10
2023-04-14T02:35:39.817Z,4.10
2023-04-14T02:39:12.613Z,4.10
2023-04-14T02:42:21.468Z,4.00
2023-04-14T02:45:28.995Z,4.20
2023-04-14T02:48:38.572Z,4.10
2023-04-14T02:51:46.665Z,3.90
2023-04-14T02:54:58.414Z,3.80
2023-04-14T02:58:07.166Z,4.20
2023-04-14T03:01:28.056Z,3.90
2023-04-14T03:04:37.970Z,4.30
2023-04-14T03:08:01.664Z,3.80
2023-04-14T03:11:07.901Z,3.70
2023-04-14T03:14:11.388Z,3.60
2023-04-14T03:17:17.829Z,3.40
2023-04-14T03:20:23.725Z,3.60
2023-04-14T03:23:29.421Z,4.50
2023-04-14T03:26:45.056Z,3.80
2023-04-14T03:30:27.051Z,2.90
2023-04-14T03:33:50.583Z,3.90
2023-04-14T03:37:00.877Z,2.80
2023-04-14T03:40:16.154Z,4.20
2023-04-14T03:43:32.730Z,3.90
2023-04-14T03:46:44.455Z,4.00
2023-04-14T03:49:53.866Z,4.50
2023-04-14T03:53:03.194Z,4.00
2023-04-14T03:56:07.536Z,4.30
2023-04-14T03:59:16.996Z,4.10
2023-04-14T04:02:22.483Z,4.00
2023-04-14T04:05:25.152Z,3.90
2023-04-14T04:08:29.160Z,4.60
2023-04-14T04:11:34.208Z,4.30
2023-04-14T04:14:42.440Z,4.00
2023-04-14T04:17:51.461Z,4.10
2023-04-14T04:20:57.884Z,4.30
2023-04-14T04:24:03.724Z,5.20
2023-04-14T04:27:11.954Z,4.10
2023-04-14T04:30:25.269Z,4.20
2023-04-14T04:33:30.704Z,4.10
2023-04-14T04:36:44.173Z,4.20
2023-04-14T04:39:52.490Z,4.40
2023-04-14T04:42:56.406Z,4.00
2023-04-14T04:46:14.908Z,4.20
2023-04-14T04:49:24.596Z,4.10
2023-04-14T04:52:40.625Z,4.10
2023-04-14T04:55:46.012Z,4.10
2023-04-14T04:58:49.237Z,4.20
2023-04-14T05:01:51.629Z,4.30
2023-04-14T05:05:00.400Z,5.10
2023-04-14T05:08:15.386Z,5.10
2023-04-14T05:11:36.274Z,4.40
2023-04-14T05:14:38.878Z,4.40
2023-04-14T05:17:41.663Z,4.50
2023-04-14T05:20:43.885Z,4.80
2023-04-14T05:23:47.334Z,4.40
2023-04-14T05:27:12.510Z,4.60
2023-04-14T05:30:17.633Z,4.40
2023-04-14T05:33:22.900Z,4.80
2023-04-14T05:36:26.059Z,4.80
2023-04-14T05:39:29.600Z,4.80
2023-04-14T05:42:32.659Z,5.30
2023-04-14T05:45:35.828Z,4.80
2023-04-14T05:48:45.984Z,6.20
2023-04-14T05:52:24.153Z,5.80
2023-04-14T05:55:31.389Z,5.90
2023-04-14T05:58:40.314Z,6.20
2023-04-14T06:01:42.947Z,6.30
2023-04-14T06:04:45.428Z,7.30
2023-04-14T06:07:55.180Z,7.60
2023-04-14T06:10:57.722Z,6.10
2023-04-14T06:14:10.001Z,6.10
2023-04-14T06:17:14.712Z,7.00
2023-04-14T06:20:26.154Z,6.70
2023-04-14T06:23:28.794Z,6.20
2023-04-14T06:26:34.493Z,6.40
2023-04-14T06:29:37.256Z,6.60
2023-04-14T06:32:41.527Z,6.70
2023-04-14T06:35:44.132Z,6.80
2023-04-14T06:38:46.390Z,7.60
2023-04-14T06:41:50.509Z,7.20
2023-04-14T06:44:53.944Z,7.00
2023-04-14T06:47:56.364Z,7.00
2023-04-14T06:50:58.764Z,6.90
2023-04-14T06:54:01.792Z,8.40
2023-04-14T06:57:04.614Z,7.20
2023-04-14T07:00:07.677Z,7.40
2023-04-14T07:03:09.832Z,7.40
2023-04-14T07:06:17.706Z,7.80
2023-04-14T07:09:21.505Z,7.60
2023-04-14T07:12:23.576Z,7.80
2023-04-14T07:15:25.897Z,8.10
2023-04-14T07:18:28.503Z,8.60
2023-04-14T07:21:32.134Z,8.40
2023-04-14T07:24:36.346Z,8.80
2023-04-14T07:27:38.234Z,8.70
2023-04-14T07:30:40.091Z,9.10
2023-04-14T07:33:41.945Z,9.70
2023-04-14T07:36:43.926Z,9.70
2023-04-14T07:39:45.736Z,9.60
2023-04-14T07:42:47.913Z,9.50
2023-04-14T07:45:49.886Z,9.40
2023-04-14T07:48:54.963Z,9.70
2023-04-14T07:52:02.477Z,8.50
2023-04-14T07:55:05.267Z,8.50
2023-04-14T07:58:07.331Z,9.10
2023-04-14T08:01:09.360Z,9.90
2023-04-14T08:04:11.867Z,9.40
2023-04-14T08:07:13.806Z,10.50
2023-04-14T08:10:15.892Z,9.40
2023-04-14T08:13:17.876Z,10.40
2023-04-14T08:16:20.280Z,10.50
2023-04-14T08:19:22.566Z,10.70
2023-04-14T08:22:25.591Z,10.50
2023-04-14T08:25:27.810Z,10.10
2023-04-14T08:28:29.975Z,10.40
2023-04-14T08:31:33.390Z,10.90
2023-04-14T08:34:35.276Z,10.50
2023-04-14T08:37:37.088Z,11.80
2023-04-14T08:40:40.819Z,10.90
2023-04-14T08:43:43.001Z,10.60
2023-04-14T08:46:47.000Z,11.60
2023-04-14T08:50:21.746Z,11.90
2023-04-14T08:53:25.367Z,10.80
2023-04-14T08:56:36.136Z,11.80
2023-04-14T08:59:38.928Z,11.50
2023-04-14T09:02:41.672Z,11.90
2023-04-14T09:05:44.563Z,11.90
2023-04-14T09:08:46.614Z,10.20
2023-04-14T09:11:49.495Z,12.70
2023-04-14T09:14:53.353Z,12.40
2023-04-14T09:17:55.700Z,12.70
2023-04-14T09:21:30.427Z,13.20
2023-04-14T09:24:23.701Z,13.30
2023-04-14T09:27:26.813Z,12.20
2023-04-14T09:30:31.607Z,12.20
2023-04-14T09:33:38.164Z,12.60
2023-04-14T09:36:41.807Z,13.70
2023-04-14T09:39:51.838Z,13.50
2023-04-14T09:42:54.155Z,14.30
2023-04-14T09:45:57.324Z,13.60
2023-04-14T09:49:00.349Z,14.10
2023-04-14T09:52:09.419Z,14.80
2023-04-14T09:55:13.703Z,13.90
2023-04-14T09:58:23.050Z,14.10
2023-04-14T10:01:31.346Z,14.50
2023-04-14T10:04:33.738Z,15.60
2023-04-14T10:07:41.868Z,15.50
2023-04-14T10:10:45.469Z,15.40
2023-04-14T10:13:55.754Z,15.60
2023-04-14T10:16:57.491Z,15.80
2023-04-14T10:20:00.347Z,16.00
2023-04-14T10:23:06.132Z,16.30
2023-04-14T10:26:09.819Z,16.10
2023-04-14T10:29:12.402Z,16.60
2023-04-14T10:32:16.457Z,17.30
2023-04-14T10:35:20.676Z,15.90
2023-04-14T10:38:22.718Z,15.80
2023-04-14T10:41:25.011Z,16.40
2023-04-14T10:44:32.597Z,16.50
2023-04-14T10:47:39.751Z,17.20
2023-04-14T10:50:48.927Z,16.70
2023-04-14T10:53:54.394Z,16.70
2023-04-14T10:57:11.267Z,16.50
2023-04-14T11:00:23.654Z,15.70
2023-04-14T11:03:32.752Z,16.40
2023-04-14T11:06:47.216Z,16.10
2023-04-14T11:09:49.902Z,15.90
2023-04-14T11:13:06.982Z,16.20
2023-04-14T11:16:09.297Z,14.80
2023-04-14T11:19:15.425Z,14.80
2023-04-14T11:22:41.390Z,14.90
2023-04-14T11:25:43.851Z,15.60
2023-04-14T11:28:46.867Z,16.20
2023-04-14T11:32:05.338Z,16.70
2023-04-14T11:35:08.263Z,16.70
2023-04-14T11:38:11.350Z,16.50
2023-04-14T11:41:15.963Z,16.20
2023-04-14T11:44:19.420Z,16.10
2023-04-14T11:47:22.331Z,16.60
2023-04-14T11:50:24.578Z,17.70
2023-04-14T11:53:27.298Z,17.80
2023-04-14T11:56:31.804Z,17.10
2023-04-14T11:59:42.139Z,17.10
2023-04-14T12:02:45.518Z,18.60
2023-04-14T12:05:48.976Z,16.90
2023-04-14T12:08:57.053Z,16.70
2023-04-14T12:11:59.030Z,17.20
2023-04-14T12:15:02.810Z,17.90
2023-04-14T12:18:08.733Z,17.70
2023-04-14T12:21:12.030Z,17.80
2023-04-14T12:24:16.892Z,16.90
2023-04-14T12:27:25.733Z,16.30
2023-04-14T12:30:27.652Z,17.80
2023-04-14T12:33:31.017Z,17.70
2023-04-14T12:36:48.622Z,17.70
2023-04-14T12:40:00.916Z,18.30
2023-04-14T12:43:05.663Z,15.90
2023-04-14T12:46:07.980Z,17.20
2023-04-14T12:49:38.688Z,18.20
2023-04-14T12:52:40.970Z,17.80
2023-04-14T12:55:43.166Z,19.30
2023-04-14T12:58:48.892Z,18.70
2023-04-14T13:01:50.930Z,19.50
2023-04-14T13:04:52.755Z,19.10
2023-04-14T13:07:54.729Z,19.20
2023-04-14T13:10:56.711Z,18.40
2023-04-14T13:13:58.653Z,18.80
2023-04-14T13:17:00.551Z,19.20
2023-04-14T13:20:02.395Z,20.10
2023-04-14T13:23:04.373Z,19.70
2023-04-14T13:26:06.507Z,19.30
2023-04-14T13:29:08.442Z,20.80
2023-04-14T13:32:11.147Z,20.20
2023-04-14T13:35:13.610Z,19.20
2023-04-14T13:38:15.421Z,20.60
2023-04-14T13:41:19.530Z,20.20
2023-04-14T13:44:21.423Z,20.40
2023-04-14T13:47:25.570Z,20.10
2023-04-14T13:50:27.660Z,19.20
2023-04-14T13:53:29.484Z,19.70
2023-04-14T13:56:31.422Z,19.70
2023-04-14T13:59:34.083Z,19.10
2023-04-14T14:02:39.604Z,19.30
2023-04-14T14:05:41.477Z,19.80
2023-04-14T14:08:43.776Z,19.00
2023-04-14T14:11:46.932Z,18.10
2023-04-14T14:14:48.823Z,18.40
2023-04-14T14:17:53.182Z,19.80
2023-04-14T14:20:55.225Z,18.00
2023-04-14T14:23:57.597Z,19.40
2023-04-14T14:26:59.607Z,18.10
2023-04-14T14:30:01.562Z,18.10
2023-04-14T14:33:04.229Z,17.90
2023-04-14T14:36:06.782Z,17.30
2023-04-14T14:39:09.250Z,17.00
2023-04-14T14:42:11.722Z,18.20
2023-04-14T14:45:13.683Z,16.80
2023-04-14T14:48:16.534Z,16.90
2023-04-14T14:51:18.345Z,17.20
2023-04-14T14:54:20.244Z,16.40
2023-04-14T14:57:22.508Z,16.20
2023-04-14T15:00:24.279Z,21.20
2023-04-14T15:03:26.290Z,21.60
2023-04-14T15:06:28.564Z,23.20
2023-04-14T15:09:30.808Z,22.30
2023-04-14T15:12:32.697Z,22.40
2023-04-14T15:15:35.412Z,21.40
2023-04-14T15:18:37.412Z,20.20
2023-04-14T15:21:39.431Z,20.10
2023-04-14T15:24:41.749Z,18.70
2023-04-14T15:27:44.140Z,16.90
2023-04-14T15:30:46.087Z,17.90
2023-04-14T15:33:47.919Z,17.30
2023-04-14T15:36:49.719Z,17.10
2023-04-14T15:39:51.668Z,17.30
2023-04-14T15:42:53.391Z,16.40
2023-04-14T15:45:57.779Z,17.20
2023-04-14T15:48:59.532Z,16.30
2023-04-14T15:52:01.652Z,16.80
2023-04-14T15:55:03.966Z,16.60
2023-04-14T15:58:05.742Z,15.90
2023-04-14T16:01:08.056Z,17.80
2023-04-14T16:04:10.282Z,16.70
2023-04-14T16:07:12.247Z,20.20
2023-04-14T16:10:14.522Z,20.00
2023-04-14T16:13:16.905Z,20.00
2023-04-14T16:16:19.066Z,19.70
2023-04-14T16:19:21.712Z,19.60
2023-04-14T16:22:23.675Z,18.60
2023-04-14T16:25:28.772Z,19.50
2023-04-14T16:28:30.834Z,17.70
2023-04-14T16:31:32.847Z,17.50
2023-04-14T16:34:35.436Z,16.40
2023-04-14T16:37:40.033Z,16.60
2023-04-14T16:40:42.938Z,16.30
2023-04-14T16:43:44.876Z,16.00
2023-04-14T16:46:46.707Z,16.70
2023-04-14T16:49:51.843Z,16.30
2023-04-14T16:52:53.925Z,17.30
2023-04-14T16:56:03.662Z,16.30
2023-04-14T16:59:07.122Z,16.30
2023-04-14T17:02:09.234Z,16.70
2023-04-14T17:05:13.228Z,16.10
2023-04-14T17:08:15.473Z,18.10
2023-04-14T17:11:17.319Z,16.30
2023-04-14T17:14:19.578Z,16.30
2023-04-14T17:17:21.468Z,16.40
2023-04-14T17:20:23.304Z,17.10
2023-04-14T17:23:25.208Z,16.80
2023-04-14T17:26:27.130Z,17.20
2023-04-14T17:29:29.664Z,17.10
2023-04-14T17:32:32.420Z,15.30
2023-04-14T17:35:35.294Z,16.20
2023-04-14T17:38:38.726Z,15.40
2023-04-14T17:41:40.598Z,15.80
2023-04-14T17:44:42.812Z,15.10
2023-04-14T17:47:44.800Z,16.50
2023-04-14T17:50:47.046Z,16.10
2023-04-14T17:53:49.008Z,15.30
2023-04-14T17:56:51.025Z,15.10
2023-04-14T17:59:53.932Z,15.40
2023-04-14T18:02:55.872Z,15.40
2023-04-14T18:05:57.857Z,15.10
2023-04-14T18:08:59.774Z,15.20
2023-04-14T18:12:01.902Z,15.40
2023-04-14T18:15:05.394Z,14.40
2023-04-14T18:18:07.547Z,13.80
2023-04-14T18:21:10.315Z,14.60
2023-04-14T18:30:22.656Z,13.60
2023-04-14T18:33:28.162Z,14.00
2023-04-14T18:36:30.562Z,14.00
2023-04-14T18:39:36.634Z,14.60
2023-04-14T18:42:39.003Z,13.70
2023-04-14T18:45:47.928Z,14.10
2023-04-14T18:48:49.982Z,13.30
2023-04-14T18:51:53.642Z,13.20
2023-04-14T18:54:55.987Z,13.80
2023-04-14T18:57:59.112Z,13.60
2023-04-14T19:01:00.932Z,13.70
2023-04-14T19:04:03.081Z,14.00
2023-04-14T19:07:05.527Z,13.70
2023-04-14T19:10:08.005Z,12.50
2023-04-14T19:13:11.130Z,12.10
2023-04-14T19:16:16.427Z,13.50
2023-04-14T19:19:21.189Z,13.80
2023-04-14T19:22:23.132Z,12.80
2023-04-14T19:25:25.037Z,11.70
2023-04-14T19:28:28.031Z,11.60
2023-04-14T19:31:29.937Z,13.20
2023-04-14T19:34:32.062Z,11.40
2023-04-14T19:37:34.498Z,12.10
2023-04-14T19:40:37.025Z,11.80
2023-04-14T19:43:39.317Z,12.30
2023-04-14T19:46:42.264Z,11.70
2023-04-14T19:49:44.173Z,10.80
2023-04-14T19:52:48.546Z,10.90
2023-04-14T19:55:53.628Z,10.70
2023-04-14T19:58:55.472Z,11.70
2023-04-14T20:01:57.385Z,11.00
2023-04-14T20:05:01.343Z,11.70
2023-04-14T20:08:03.530Z,11.70
2023-04-14T20:11:05.380Z,11.10
2023-04-14T20:14:07.418Z,11.40
2023-04-14T20:17:09.276Z,9.80
2023-04-14T20:20:13.128Z,10.20
2023-04-14T20:23:15.565Z,10.00
2023-04-14T20:26:17.577Z,10.00
2023-04-14T20:29:19.606Z,10.80
2023-04-14T20:32:21.448Z,10.80
2023-04-14T20:35:23.376Z,10.40
2023-04-14T20:38:25.120Z,9.70
2023-04-14T20:41:27.219Z,9.70
2023-04-14T20:44:29.068Z,10.30
2023-04-14T20:47:31.127Z,11.00
2023-04-14T20:50:33.509Z,10.20
2023-04-14T20:53:35.918Z,11.10
2023-04-14T20:56:38.009Z,9.60
2023-04-14T20:59:40.122Z,9.60
2023-04-14T21:02:43.450Z,10.90
2023-04-14T21:05:46.362Z,10.60
2023-04-14T21:08:48.383Z,9.50
2023-04-14T21:12:15.411Z,10.60
2023-04-14T21:15:48.985Z,10.60
2023-04-14T21:18:37.755Z,9.50
2023-04-14T21:21:39.938Z,9.70
2023-04-14T21:24:46.620Z,9.60
2023-04-14T21:27:48.467Z,9.60
2023-04-14T21:30:50.460Z,9.60
2023-04-14T21:33:52.765Z,10.50
2023-04-14T21:36:54.814Z,9.30
2023-04-14T21:39:58.864Z,9.60
2023-04-14T21:43:03.905Z,10.00
2023-04-14T21:46:06.238Z,9.40
2023-04-14T21:49:08.269Z,9.30
2023-04-14T21:52:10.257Z,9.20
2023-04-14T21:55:12.340Z,10.30
2023-04-14T21:58:14.314Z,9.20
2023-04-14T22:01:16.274Z,9.10
2023-04-14T22:04:28.819Z,9.80
2023-04-14T22:07:37.640Z,8.90
2023-04-14T22:10:43.205Z,10.50
2023-04-14T22:13:45.354Z,8.80
2023-04-14T22:16:47.527Z,8.70
2023-04-14T22:19:49.516Z,8.70
2023-04-14T22:22:51.372Z,9.00
2023-04-14T22:25:53.247Z,10.00
2023-04-14T22:28:55.413Z,9.90
2023-04-14T22:31:57.352Z,8.60
2023-04-14T22:34:59.215Z,8.80
2023-04-14T22:38:01.504Z,8.40
2023-04-14T22:41:03.517Z,8.50
2023-04-14T22:44:06.628Z,9.10
2023-04-14T22:47:08.549Z,8.30
2023-04-14T22:50:10.693Z,8.70
2023-04-14T22:53:12.713Z,8.20
2023-04-14T22:56:14.857Z,9.60
2023-04-14T22:59:16.894Z,10.10
2023-04-14T23:02:18.939Z,9.70
2023-04-14T23:05:21.211Z,8.10
2023-04-14T23:08:25.288Z,9.00
2023-04-14T23:11:27.736Z,7.90
2023-04-14T23:14:29.727Z,7.90
2023-04-14T23:17:33.089Z,8.90
2023-04-14T23:20:35.375Z,7.90
2023-04-14T23:23:37.422Z,8.80
2023-04-14T23:26:39.519Z,7.60
2023-04-14T23:29:41.547Z,8.10
2023-04-14T23:32:44.838Z,7.50
2023-04-14T23:35:46.682Z,7.40
2023-04-14T23:38:49.048Z,7.20
2023-04-14T23:41:51.162Z,7.70
2023-04-14T23:44:53.036Z,7.20
2023-04-14T23:47:55.323Z,7.60
2023-04-14T23:50:59.618Z,8.20
2023-04-14T23:54:16.127Z,8.60
2023-04-14T23:57:18.221Z,7.70
